createdAt,value
2023-04-19T00:01:44.109Z,9.23
2023-04-19T00:04:11.361Z,9.22
2023-04-19T00:06:40.504Z,9.21
2023-04-19T00:09:08.484Z,9.21
2023-04-19T00:11:35.271Z,9.24
2023-04-19T00:14:02.674Z,9.27
2023-04-19T00:16:29.559Z,9.31
2023-04-19T00:18:56.355Z,9.34
2023-04-19T00:21:23.250Z,9.36
2023-04-19T00:23:50.146Z,9.36
2023-04-19T00:26:16.934Z,9.33
2023-04-19T00:28:46.183Z,9.30
2023-04-19T00:31:13.042Z,9.27
2023-04-19T00:33:42.368Z,9.25
2023-04-19T00:36:10.498Z,9.23
2023-04-19T00:38:37.310Z,9.22
2023-04-19T00:41:04.176Z,9.21
2023-04-19T00:43:31.350Z,9.24
2023-04-19T00:45:58.207Z,9.29
2023-04-19T00:48:24.996Z,9.37
2023-04-19T00:50:51.890Z,9.42
2023-04-19T00:53:18.816Z,9.46
2023-04-19T00:55:46.593Z,9.49
2023-04-19T00:58:13.531Z,9.52
2023-04-19T01:00:43.822Z,9.56
2023-04-19T01:03:10.851Z,9.60
2023-04-19T01:05:38.075Z,9.62
2023-04-19T01:08:05.850Z,9.67
2023-04-19T01:10:32.914Z,9.73
2023-04-19T01:12:59.867Z,9.77
2023-04-19T01:15:26.686Z,9.81
2023-04-19T01:17:55.982Z,9.85
2023-04-19T01:20:23.140Z,9.92
2023-04-19T01:22:51.489Z,9.98
2023-04-19T01:25:18.377Z,10.04
2023-04-19T01:27:45.388Z,10.10
2023-04-19T01:30:12.562Z,10.14
2023-04-19T01:32:40.925Z,10.16
2023-04-19T01:35:10.604Z,10.16
2023-04-19T01:37:37.526Z,10.16
2023-04-19T01:40:06.865Z,10.15
2023-04-19T01:42:34.972Z,10.18
2023-04-19T01:45:01.929Z,10.21
2023-04-19T01:47:29.430Z,10.24
2023-04-19T01:49:56.433Z,10.27
2023-04-19T01:52:23.170Z,10.28
2023-04-19T01:54:52.380Z,10.30
2023-04-19T01:57:20.409Z,10.31
2023-04-19T01:59:47.629Z,10.30
2023-04-19T02:02:14.501Z,10.28
2023-04-19T02:04:41.355Z,10.24
2023-04-19T02:07:08.201Z,10.22
2023-04-19T02:09:36.559Z,10.24
2023-04-19T02:12:04.655Z,10.28
2023-04-19T02:14:32.215Z,10.29
2023-04-19T02:16:59.316Z,10.27
2023-04-19T02:19:26.218Z,10.26
2023-04-19T02:21:57.088Z,10.28
2023-04-19T02:24:24.465Z,10.29
2023-04-19T02:26:53.072Z,10.30
2023-04-19T02:29:20.498Z,10.31
2023-04-19T02:31:47.429Z,10.32
2023-04-19T02:34:14.626Z,10.32
2023-04-19T02:36:41.672Z,10.34
2023-04-19T02:39:08.405Z,10.36
2023-04-19T02:41:38.688Z,10.40
2023-04-19T02:44:05.808Z,10.44
2023-04-19T02:46:34.773Z,10.46
2023-04-19T02:49:02.018Z,10.48
2023-04-19T02:51:29.038Z,10.49
2023-04-19T02:53:55.862Z,10.50
2023-04-19T02:56:23.109Z,10.47
2023-04-19T02:58:50.069Z,10.45
2023-04-19T03:01:17.002Z,10.43
2023-04-19T03:03:44.464Z,10.45
2023-04-19T03:06:11.972Z,10.47
2023-04-19T03:08:39.265Z,10.49
2023-04-19T03:11:06.116Z,10.44
2023-04-19T03:13:32.976Z,10.37
2023-04-19T03:15:59.920Z,10.34
2023-04-19T03:18:27.313Z,10.33
2023-04-19T03:20:55.158Z,10.31
2023-04-19T03:23:25.129Z,10.26
2023-04-19T03:25:52.045Z,10.25
2023-04-19T03:28:32.383Z,10.29
2023-04-19T03:31:32.325Z,10.35
2023-04-19T03:33:59.336Z,10.41
2023-04-19T03:36:30.592Z,10.46
2023-04-19T03:38:59.267Z,10.50
2023-04-19T03:41:27.032Z,10.50
2023-04-19T03:44:14.280Z,10.47
2023-04-19T03:46:45.878Z,10.48
2023-04-19T03:49:13.512Z,10.48
2023-04-19T03:51:41.965Z,10.49
2023-04-19T03:54:08.849Z,10.50
2023-04-19T03:56:35.838Z,10.51
2023-04-19T03:59:02.802Z,10.51
2023-04-19T04:01:30.342Z,10.53
2023-04-19T04:03:57.549Z,10.58
2023-04-19T04:06:26.328Z,10.65
2023-04-19T04:08:53.211Z,10.69
2023-04-19T04:11:21.197Z,10.74
2023-04-19T04:13:50.201Z,10.76
2023-04-19T04:16:20.588Z,10.79
2023-04-19T04:18:48.019Z,10.82
2023-04-19T04:21:15.050Z,10.84
2023-04-19T04:23:45.021Z,10.85
2023-04-19T04:26:20.191Z,10.87
2023-04-19T04:28:58.764Z,10.88
2023-04-19T04:31:25.700Z,10.93
2023-04-19T04:33:54.859Z,10.97
2023-04-19T04:36:21.921Z,11.02
2023-04-19T04:38:49.271Z,11.02
2023-04-19T04:41:16.238Z,11.03
2023-04-19T04:43:43.058Z,11.02
2023-04-19T04:46:10.868Z,11.02
2023-04-19T04:48:39.259Z,11.03
2023-04-19T04:51:06.275Z,11.04
2023-04-19T04:53:34.413Z,11.06
2023-04-19T04:56:03.462Z,11.10
2023-04-19T04:58:31.112Z,11.17
2023-04-19T05:01:04.080Z,11.20
2023-04-19T05:03:33.336Z,11.21
2023-04-19T05:06:02.430Z,11.24
2023-04-19T05:08:31.281Z,11.27
2023-04-19T05:11:09.477Z,11.31
2023-04-19T05:13:37.033Z,11.34
2023-04-19T05:16:04.447Z,11.40
2023-04-19T05:18:32.156Z,11.45
2023-04-19T05:20:59.931Z,11.51
2023-04-19T05:23:30.238Z,11.57
2023-04-19T05:28:53.573Z,11.84
2023-04-19T05:31:45.107Z,12.10
2023-04-19T05:34:33.323Z,12.39
2023-04-19T05:37:00.618Z,12.64
2023-04-19T05:39:27.584Z,12.88
2023-04-19T05:41:54.851Z,13.12
2023-04-19T05:44:22.093Z,13.34
2023-04-19T05:46:49.043Z,13.48
2023-04-19T05:49:20.907Z,13.59
2023-04-19T05:52:02.910Z,13.76
2023-04-19T05:54:36.053Z,14.11
2023-04-19T05:57:03.920Z,14.63
2023-04-19T05:59:31.885Z,15.10
2023-04-19T06:02:00.884Z,15.36
2023-04-19T06:04:28.166Z,15.54
2023-04-19T06:06:55.735Z,15.56
2023-04-19T06:09:22.585Z,15.36
2023-04-19T06:11:51.532Z,15.12
2023-04-19T06:14:19.742Z,14.89
2023-04-19T06:16:46.893Z,14.71
2023-04-19T06:19:14.052Z,14.56
2023-04-19T06:21:40.917Z,14.38
2023-04-19T06:24:07.983Z,14.31
2023-04-19T06:26:34.887Z,14.28
2023-04-19T06:29:01.908Z,14.27
2023-04-19T06:31:29.463Z,14.22
2023-04-19T06:33:56.403Z,14.22
2023-04-19T06:36:23.593Z,14.22
2023-04-19T06:38:50.651Z,14.15
2023-04-19T06:41:17.637Z,14.09
2023-04-19T06:43:44.978Z,14.12
2023-04-19T06:46:14.036Z,14.19
2023-04-19T06:48:41.391Z,14.35
2023-04-19T06:51:08.959Z,14.55
2023-04-19T06:53:36.624Z,14.70
2023-04-19T06:56:04.286Z,14.81
2023-04-19T06:58:33.286Z,14.89
2023-04-19T07:01:03.783Z,14.92
2023-04-19T07:03:30.832Z,14.87
2023-04-19T07:05:58.748Z,14.76
2023-04-19T07:08:34.978Z,14.64
2023-04-19T07:11:09.920Z,14.51
2023-04-19T07:13:38.015Z,14.39
2023-04-19T07:16:05.883Z,14.33
2023-04-19T07:18:33.374Z,14.28
2023-04-19T07:21:00.360Z,14.26
2023-04-19T07:23:27.135Z,14.30
2023-04-19T07:25:54.180Z,14.39
2023-04-19T07:28:21.113Z,14.56
2023-04-19T07:30:49.677Z,14.75
2023-04-19T07:33:17.335Z,15.04
2023-04-19T07:35:44.142Z,15.41
2023-04-19T07:38:10.965Z,15.81
2023-04-19T07:40:38.064Z,16.18
2023-04-19T07:43:05.050Z,16.56
2023-04-19T07:45:33.226Z,16.86
2023-04-19T07:48:02.434Z,16.97
2023-04-19T07:50:31.420Z,17.01
2023-04-19T07:52:58.363Z,17.00
2023-04-19T07:55:25.405Z,17.11
2023-04-19T07:57:52.276Z,17.54
2023-04-19T08:00:21.291Z,18.16
2023-04-19T08:02:48.561Z,18.84
2023-04-19T08:05:19.703Z,19.45
2023-04-19T08:07:46.723Z,19.82
2023-04-19T08:10:14.185Z,20.09
2023-04-19T08:12:47.704Z,20.38
2023-04-19T08:17:57.471Z,21.14
2023-04-19T08:20:24.799Z,21.33
2023-04-19T08:22:53.914Z,21.44
2023-04-19T08:25:23.297Z,21.55
2023-04-19T08:27:50.273Z,21.65
2023-04-19T08:30:17.386Z,21.73
2023-04-19T08:32:44.324Z,21.81
2023-04-19T08:35:11.351Z,21.84
2023-04-19T08:37:38.383Z,21.91
2023-04-19T08:40:06.195Z,22.14
2023-04-19T08:42:36.826Z,22.44
2023-04-19T08:47:42.145Z,23.14
2023-04-19T08:50:31.166Z,23.45
2023-04-19T08:53:16.084Z,23.51
2023-04-19T08:58:30.684Z,23.67
2023-04-19T09:01:08.350Z,23.75
2023-04-19T09:04:02.657Z,23.84
2023-04-19T09:06:38.603Z,23.86
2023-04-19T09:11:52.988Z,23.11
2023-04-19T09:14:20.736Z,22.76
2023-04-19T09:16:47.973Z,22.58
2023-04-19T09:19:24.143Z,22.49
2023-04-19T09:21:55.189Z,22.48
2023-04-19T09:25:13.641Z,22.50
2023-04-19T09:27:28.502Z,22.55
2023-04-19T09:29:56.566Z,22.65
2023-04-19T09:32:24.033Z,22.77
2023-04-19T09:34:52.726Z,22.98
2023-04-19T09:37:33.025Z,23.29
2023-04-19T09:40:23.622Z,23.52
2023-04-19T09:45:29.829Z,23.07
2023-04-19T09:48:02.939Z,22.72
2023-04-19T09:50:32.752Z,22.61
2023-04-19T09:53:00.952Z,22.75
2023-04-19T09:55:29.169Z,23.06
2023-04-19T09:58:01.452Z,23.39
2023-04-19T10:00:33.528Z,23.59
2023-04-19T10:03:06.639Z,23.67
2023-04-19T10:05:33.758Z,23.47
2023-04-19T10:08:01.694Z,23.27
2023-04-19T10:15:47.255Z,22.06
2023-04-19T10:18:17.954Z,21.62
2023-04-19T10:21:03.888Z,21.24
2023-04-19T10:23:31.411Z,21.11
2023-04-19T10:25:59.111Z,21.07
2023-04-19T10:28:30.281Z,21.03
2023-04-19T10:31:02.451Z,20.89
2023-04-19T10:33:36.792Z,20.63
2023-04-19T10:36:08.662Z,20.25
2023-04-19T10:38:46.682Z,19.90
2023-04-19T10:41:17.482Z,19.59
2023-04-19T10:43:59.382Z,19.37
2023-04-19T10:49:15.671Z,19.14
2023-04-19T10:51:49.959Z,19.10
2023-04-19T10:54:37.884Z,18.97
2023-04-19T10:57:14.964Z,18.83
2023-04-19T11:00:25.604Z,18.80
2023-04-19T11:02:53.570Z,18.87
2023-04-19T11:05:21.061Z,18.90
2023-04-19T11:07:48.390Z,18.91
2023-04-19T11:10:28.081Z,18.91
2023-04-19T11:12:55.446Z,18.95
2023-04-19T11:15:23.681Z,18.93
2023-04-19T11:18:08.767Z,18.85
2023-04-19T11:20:42.616Z,18.70
2023-04-19T11:23:19.437Z,18.59
2023-04-19T11:25:48.006Z,18.51
2023-04-19T11:28:17.016Z,18.41
2023-04-19T11:30:43.833Z,18.21
2023-04-19T11:33:12.216Z,18.00
2023-04-19T11:35:39.280Z,17.87
2023-04-19T11:38:06.242Z,17.77
2023-04-19T11:40:33.803Z,17.69
2023-04-19T11:43:03.155Z,17.56
2023-04-19T11:45:39.103Z,17.40
2023-04-19T11:48:17.736Z,17.28
2023-04-19T11:50:45.550Z,17.20
2023-04-19T11:53:33.333Z,17.17
2023-04-19T11:56:05.165Z,17.18
2023-04-19T11:58:35.593Z,17.14
2023-04-19T12:01:13.679Z,17.10
2023-04-19T12:03:45.145Z,17.12
2023-04-19T12:06:15.710Z,17.12
2023-04-19T12:08:47.512Z,17.04
2023-04-19T12:11:15.453Z,16.99
2023-04-19T12:13:44.443Z,16.96
2023-04-19T12:16:11.653Z,16.93
2023-04-19T12:18:48.237Z,16.86
2023-04-19T12:21:28.850Z,16.79
2023-04-19T12:23:59.655Z,16.70
2023-04-19T12:26:28.753Z,16.62
2023-04-19T12:28:56.017Z,16.51
2023-04-19T12:31:23.481Z,16.44
2023-04-19T12:33:50.710Z,16.43
2023-04-19T12:36:17.926Z,16.46
2023-04-19T12:38:46.579Z,16.48
2023-04-19T12:41:13.489Z,16.49
2023-04-19T12:43:40.627Z,16.53
2023-04-19T12:46:07.676Z,16.58
2023-04-19T12:48:35.019Z,16.62
2023-04-19T12:51:04.655Z,16.58
2023-04-19T12:53:31.792Z,16.52
2023-04-19T12:55:58.625Z,16.45
2023-04-19T12:58:27.550Z,16.37
2023-04-19T13:00:54.761Z,16.34
2023-04-19T13:03:21.736Z,16.27
2023-04-19T13:05:48.880Z,16.24
2023-04-19T13:08:16.586Z,16.16
2023-04-19T13:10:43.886Z,16.01
2023-04-19T13:13:10.745Z,15.86
2023-04-19T13:15:37.800Z,15.71
2023-04-19T13:18:04.789Z,15.62
2023-04-19T13:20:35.328Z,15.52
2023-04-19T13:23:02.432Z,15.42
2023-04-19T13:25:29.314Z,15.34
2023-04-19T13:27:56.150Z,15.27
2023-04-19T13:30:23.717Z,15.16
2023-04-19T13:32:51.886Z,15.02
2023-04-19T13:35:19.218Z,14.92
2023-04-19T13:37:47.238Z,14.87
2023-04-19T13:40:19.404Z,14.84
2023-04-19T13:42:47.179Z,14.76
2023-04-19T13:45:14.575Z,14.65
2023-04-19T13:47:41.660Z,14.53
2023-04-19T13:50:09.111Z,14.42
2023-04-19T13:52:36.396Z,14.32
2023-04-19T13:55:03.572Z,14.25
2023-04-19T13:57:30.833Z,14.18
2023-04-19T13:59:59.351Z,14.12
2023-04-19T14:02:26.420Z,14.03
2023-04-19T14:04:59.268Z,13.99
2023-04-19T14:07:28.632Z,14.02
2023-04-19T14:09:58.461Z,14.07
2023-04-19T14:12:26.253Z,14.07
2023-04-19T14:14:53.498Z,14.07
2023-04-19T14:17:20.448Z,14.07
2023-04-19T14:19:47.600Z,14.08
2023-04-19T14:22:16.195Z,14.07
2023-04-19T14:24:43.341Z,14.05
2023-04-19T14:27:11.910Z,14.00
2023-04-19T14:29:39.403Z,13.99
2023-04-19T14:32:21.474Z,13.95
2023-04-19T14:34:51.060Z,13.88
2023-04-19T14:37:18.597Z,13.82
2023-04-19T14:39:45.828Z,13.72
2023-04-19T14:42:13.167Z,13.60
2023-04-19T14:44:40.396Z,13.54
2023-04-19T14:47:07.587Z,13.55
2023-04-19T14:49:34.805Z,13.53
2023-04-19T14:52:03.292Z,13.46
2023-04-19T14:54:30.329Z,13.40
2023-04-19T14:56:57.417Z,13.32
2023-04-19T14:59:24.305Z,13.24
2023-04-19T15:01:51.204Z,13.17
2023-04-19T15:04:18.218Z,13.11
2023-04-19T15:06:45.607Z,13.07
2023-04-19T15:09:12.536Z,13.02
2023-04-19T15:11:39.542Z,12.92
2023-04-19T15:14:06.533Z,12.83
2023-04-19T15:16:33.815Z,12.74
2023-04-19T15:19:01.857Z,12.64
2023-04-19T15:21:28.633Z,12.53
2023-04-19T15:23:55.498Z,12.39
2023-04-19T15:26:25.103Z,12.29
2023-04-19T15:28:56.941Z,12.21
2023-04-19T15:31:24.463Z,12.14
2023-04-19T15:33:51.920Z,12.09
2023-04-19T15:36:22.475Z,12.07
2023-04-19T15:38:49.566Z,12.05
2023-04-19T15:41:16.947Z,12.00
2023-04-19T15:43:43.907Z,11.94
2023-04-19T15:46:13.103Z,11.89
2023-04-19T15:48:40.681Z,11.83
2023-04-19T15:51:08.797Z,11.79
2023-04-19T15:56:43.487Z,11.60
2023-04-19T15:59:11.428Z,11.51
2023-04-19T16:01:39.213Z,11.47
2023-04-19T16:04:06.562Z,11.46
2023-04-19T16:06:34.459Z,11.39
2023-04-19T16:09:01.501Z,11.34
2023-04-19T16:11:29.207Z,11.30
2023-04-19T16:13:58.531Z,11.28
2023-04-19T16:16:27.050Z,11.29
2023-04-19T16:18:54.042Z,11.27
2023-04-19T16:21:21.145Z,11.23
2023-04-19T16:23:52.896Z,11.24
2023-04-19T16:26:21.986Z,11.24
2023-04-19T16:28:52.418Z,11.26
2023-04-19T16:31:19.605Z,11.26
2023-04-19T16:33:48.047Z,11.25
2023-04-19T16:36:15.345Z,11.21
2023-04-19T16:38:42.337Z,11.21
2023-04-19T16:41:11.908Z,11.26
2023-04-19T16:43:39.202Z,11.28
2023-04-19T16:46:06.883Z,11.25
2023-04-19T16:48:47.892Z,11.18
2023-04-19T16:51:15.356Z,11.19
2023-04-19T16:53:49.631Z,11.18
2023-04-19T16:56:19.109Z,11.16
2023-04-19T16:58:47.337Z,11.16
2023-04-19T17:01:14.820Z,11.14
2023-04-19T17:03:42.251Z,11.13
2023-04-19T17:06:20.814Z,11.11
2023-04-19T17:08:51.592Z,11.06
2023-04-19T17:11:18.873Z,11.08
2023-04-19T17:13:45.664Z,11.10
2023-04-19T17:16:13.532Z,11.10
2023-04-19T17:18:44.831Z,11.11
2023-04-19T17:21:16.360Z,11.11
2023-04-19T17:23:44.939Z,11.08
2023-04-19T17:26:13.629Z,11.05
2023-04-19T17:28:42.100Z,11.01
2023-04-19T17:31:09.363Z,10.94
2023-04-19T17:33:37.586Z,10.91
2023-04-19T17:36:06.446Z,10.89
2023-04-19T17:38:34.594Z,10.89
2023-04-19T17:41:03.214Z,10.89
2023-04-19T17:49:02.513Z,10.97
2023-04-19T17:51:33.994Z,11.00
2023-04-19T17:54:06.182Z,11.02
2023-04-19T17:57:21.940Z,11.01
2023-04-19T18:04:34.541Z,10.96
2023-04-19T18:07:03.163Z,10.94
2023-04-19T18:09:30.097Z,10.95
2023-04-19T18:11:57.550Z,10.97
2023-04-19T18:14:32.451Z,11.02
2023-04-19T18:17:01.453Z,11.06
2023-04-19T18:22:59.472Z,10.96
2023-04-19T18:26:15.841Z,10.92
2023-04-19T18:29:03.620Z,10.85
2023-04-19T18:31:30.699Z,10.81
2023-04-19T18:33:57.598Z,10.77
2023-04-19T18:36:24.602Z,10.79
2023-04-19T18:38:51.617Z,10.78
2023-04-19T18:41:18.736Z,10.76
2023-04-19T18:44:00.716Z,10.75
2023-04-19T18:46:33.629Z,10.74
2023-04-19T18:49:00.805Z,10.75
2023-04-19T18:51:28.260Z,10.81
2023-04-19T18:53:57.560Z,10.84
2023-04-19T18:56:52.165Z,10.81
2023-04-19T18:59:13.779Z,10.81
2023-04-19T19:01:41.601Z,10.87
2023-04-19T19:04:37.401Z,10.84
2023-04-19T19:07:07.844Z,10.85
2023-04-19T19:12:29.311Z,10.89
2023-04-19T19:14:56.517Z,10.90
2023-04-19T19:17:27.827Z,10.91
2023-04-19T19:19:57.479Z,10.91
2023-04-19T19:22:28.339Z,10.93
2023-04-19T19:24:56.860Z,10.97
2023-04-19T19:27:23.998Z,11.03
2023-04-19T19:29:53.809Z,11.09
2023-04-19T19:32:25.112Z,11.12
2023-04-19T19:35:09.916Z,11.11
2023-04-19T19:37:37.832Z,11.05
2023-04-19T19:40:11.305Z,11.03
2023-04-19T19:42:48.420Z,11.08
2023-04-19T19:45:17.607Z,11.15
2023-04-19T19:47:49.296Z,11.23
2023-04-19T19:52:55.050Z,11.33
2023-04-19T19:55:23.141Z,11.36
2023-04-19T20:00:44.008Z,11.39
2023-04-19T20:03:12.127Z,11.41
2023-04-19T20:05:39.894Z,11.42
2023-04-19T20:08:11.594Z,11.43
2023-04-19T20:10:40.936Z,11.45
2023-04-19T20:13:08.411Z,11.43
2023-04-19T20:15:35.991Z,11.40
2023-04-19T20:18:03.810Z,11.39
2023-04-19T20:20:31.128Z,11.31
2023-04-19T20:22:59.041Z,11.23
2023-04-19T20:25:26.263Z,11.17
2023-04-19T20:27:54.464Z,11.12
2023-04-19T20:30:21.353Z,11.07
2023-04-19T20:32:49.544Z,11.05
2023-04-19T20:35:18.338Z,11.05
2023-04-19T20:37:45.934Z,11.03
2023-04-19T20:40:14.536Z,11.04
2023-04-19T20:42:43.685Z,11.03
2023-04-19T20:45:10.588Z,10.98
2023-04-19T20:47:38.225Z,10.90
2023-04-19T20:50:06.257Z,10.82
2023-04-19T20:52:34.323Z,10.74
2023-04-19T20:55:01.241Z,10.71
2023-04-19T20:57:28.238Z,10.70
2023-04-19T20:59:55.229Z,10.73
2023-04-19T21:02:22.088Z,10.75
2023-04-19T21:04:48.906Z,10.77
2023-04-19T21:07:15.746Z,10.78
2023-04-19T21:09:43.061Z,10.82
2023-04-19T21:12:10.100Z,10.84
2023-04-19T21:14:36.989Z,10.88
2023-04-19T21:17:03.891Z,10.84
2023-04-19T21:19:30.981Z,10.81
2023-04-19T21:21:58.275Z,10.84
2023-04-19T21:24:25.721Z,10.87
2023-04-19T21:26:52.566Z,10.90
2023-04-19T21:29:20.008Z,10.88
2023-04-19T21:31:47.079Z,10.88
2023-04-19T21:34:13.923Z,10.87
2023-04-19T21:36:40.791Z,10.82
2023-04-19T21:39:07.854Z,10.79
2023-04-19T21:41:37.328Z,10.79
2023-04-19T21:44:04.266Z,10.81
2023-04-19T21:46:31.615Z,10.81
2023-04-19T21:48:58.530Z,10.85
2023-04-19T21:51:25.354Z,10.87
2023-04-19T21:53:52.255Z,10.85
2023-04-19T21:56:19.205Z,10.81
2023-04-19T21:58:47.029Z,10.78
2023-04-19T22:01:13.983Z,10.80
2023-04-19T22:03:41.264Z,10.83
2023-04-19T22:06:08.923Z,10.81
2023-04-19T22:08:35.819Z,10.78
2023-04-19T22:11:02.996Z,10.77
2023-04-19T22:13:32.729Z,10.77
2023-04-19T22:16:01.647Z,10.76
2023-04-19T22:18:28.799Z,10.77
2023-04-19T22:20:55.604Z,10.80
2023-04-19T22:23:23.326Z,10.81
2023-04-19T22:25:50.306Z,10.81
2023-04-19T22:28:17.176Z,10.78
2023-04-19T22:30:45.045Z,10.77
2023-04-19T22:33:12.028Z,10.77
2023-04-19T22:35:38.941Z,10.76
2023-04-19T22:38:05.780Z,10.74
2023-04-19T22:40:32.646Z,10.70
2023-04-19T22:42:59.424Z,10.67
2023-04-19T22:45:26.252Z,10.63
2023-04-19T22:47:53.191Z,10.56
2023-04-19T22:50:21.737Z,10.51
2023-04-19T22:52:49.349Z,10.47
2023-04-19T22:55:19.316Z,10.43
2023-04-19T22:57:46.185Z,10.38
2023-04-19T23:00:14.225Z,10.39
2023-04-19T23:02:41.728Z,10.43
2023-04-19T23:05:08.839Z,10.42
2023-04-19T23:07:38.886Z,10.42
2023-04-19T23:10:06.312Z,10.44
2023-04-19T23:12:33.936Z,10.48
2023-04-19T23:15:01.576Z,10.54
2023-04-19T23:17:28.689Z,10.58
2023-04-19T23:19:55.544Z,10.55
2023-04-19T23:22:22.408Z,10.51
2023-04-19T23:24:49.357Z,10.48
2023-04-19T23:27:16.500Z,10.51
2023-04-19T23:29:43.626Z,10.55
2023-04-19T23:32:10.621Z,10.57
2023-04-19T23:34:37.467Z,10.58
2023-04-19T23:37:04.293Z,10.59
2023-04-19T23:39:31.725Z,10.61
2023-04-19T23:41:58.668Z,10.63
2023-04-19T23:44:26.399Z,10.69
2023-04-19T23:46:53.813Z,10.78
2023-04-19T23:49:20.878Z,10.85
2023-04-19T23:51:49.939Z,10.91
2023-04-19T23:54:20.663Z,10.97
2023-04-19T23:56:48.902Z,11.00
2023-04-19T23:59:15.976Z,11.02
